createdAt,value
2022-11-19T00:00:27.424Z,78.28
2022-11-19T00:02:57.208Z,78.33
2022-11-19T00:05:27.004Z,78.51
2022-11-19T00:07:56.736Z,78.51
2022-11-19T00:10:26.375Z,78.37
2022-11-19T00:12:56.176Z,78.37
2022-11-19T00:15:25.901Z,77.72
2022-11-19T00:17:57.701Z,78.58
2022-11-19T00:20:27.965Z,78.19
2022-11-19T00:22:58.451Z,78.23
2022-11-19T00:25:30.772Z,78.29
2022-11-19T00:28:00.494Z,78.07
2022-11-19T00:30:47.641Z,78.09
2022-11-19T00:33:01.753Z,78.69
2022-11-19T00:35:31.809Z,78.73
2022-11-19T00:38:01.673Z,78.70
2022-11-19T00:40:31.365Z,78.22
2022-11-19T00:43:18.691Z,78.85
2022-11-19T00:45:48.993Z,78.82
2022-11-19T00:48:18.735Z,78.45
2022-11-19T00:50:48.497Z,78.98
2022-11-19T00:53:18.619Z,78.49
2022-11-19T00:55:48.645Z,78.26
2022-11-19T00:58:19.267Z,78.10
2022-11-19T01:00:49.104Z,77.81
2022-11-19T01:03:19.050Z,78.20
2022-11-19T01:05:48.774Z,77.72
2022-11-19T01:08:19.081Z,77.63
2022-11-19T01:10:49.117Z,78.08
2022-11-19T01:13:37.147Z,78.46
2022-11-19T01:16:13.946Z,78.41
2022-11-19T01:18:44.815Z,78.68
2022-11-19T01:21:15.520Z,78.67
2022-11-19T01:23:45.999Z,78.33
2022-11-19T01:26:16.585Z,78.59
2022-11-19T01:28:46.465Z,79.42
2022-11-19T01:31:24.452Z,78.92
2022-11-19T01:33:54.288Z,79.16
2022-11-19T01:36:26.786Z,78.77
2022-11-19T01:38:57.266Z,79.00
2022-11-19T01:41:30.140Z,78.54
2022-11-19T01:44:03.282Z,78.53
2022-11-19T01:46:36.066Z,77.58
2022-11-19T01:49:11.616Z,77.58
2022-11-19T01:51:44.088Z,77.92
2022-11-19T01:54:28.287Z,78.34
2022-11-19T01:57:01.095Z,78.47
2022-11-19T01:59:32.176Z,78.66
2022-11-19T02:02:01.996Z,78.36
2022-11-19T02:04:33.388Z,78.27
2022-11-19T02:07:03.468Z,77.56
2022-11-19T02:09:34.960Z,77.12
2022-11-19T02:12:15.797Z,77.36
2022-11-19T02:14:57.637Z,77.36
2022-11-19T02:17:46.854Z,76.88
2022-11-19T02:20:43.278Z,77.15
2022-11-19T02:23:46.237Z,77.55
2022-11-19T02:26:48.347Z,76.61
2022-11-19T02:29:32.933Z,76.16
2022-11-19T02:32:08.556Z,77.04
2022-11-19T02:34:41.701Z,77.45
2022-11-19T02:37:23.082Z,76.99
2022-11-19T02:40:01.472Z,76.95
2022-11-19T02:42:34.556Z,76.84
2022-11-19T02:45:19.292Z,76.84
2022-11-19T02:47:57.573Z,76.87
2022-11-19T02:50:32.554Z,77.41
2022-11-19T02:56:46.325Z,77.21
2022-11-19T02:59:37.164Z,77.26
2022-11-19T03:02:28.681Z,76.36
2022-11-19T03:04:58.503Z,75.78
2022-11-19T03:07:28.797Z,76.17
2022-11-19T03:10:01.899Z,76.54
2022-11-19T03:12:46.658Z,76.58
2022-11-19T03:15:39.737Z,76.52
2022-11-19T03:18:26.011Z,76.34
2022-11-19T03:20:59.088Z,76.43
2022-11-19T03:23:34.767Z,76.31
2022-11-19T03:26:18.077Z,76.02
2022-11-19T03:28:50.352Z,75.87
2022-11-19T03:31:23.294Z,75.76
2022-11-19T03:33:55.359Z,75.76
2022-11-19T03:36:30.588Z,75.55
2022-11-19T03:39:03.674Z,75.74
2022-11-19T03:41:36.173Z,76.03
2022-11-19T03:44:31.801Z,75.42
2022-11-19T03:47:04.580Z,75.42
2022-11-19T03:49:37.415Z,75.00
2022-11-19T03:52:14.175Z,74.81
2022-11-19T03:54:44.338Z,74.78
2022-11-19T03:57:17.123Z,74.55
2022-11-19T03:59:47.796Z,74.45
2022-11-19T04:02:18.141Z,74.81
2022-11-19T04:04:47.886Z,74.83
2022-11-19T04:07:20.418Z,74.93
2022-11-19T04:09:51.090Z,74.93
2022-11-19T04:12:23.954Z,74.25
2022-11-19T04:14:54.197Z,74.25
2022-11-19T04:17:23.933Z,74.11
2022-11-19T04:19:53.680Z,74.33
2022-11-19T04:22:23.124Z,74.50
2022-11-19T04:24:52.865Z,73.81
2022-11-19T04:27:22.618Z,74.34
2022-11-19T04:29:52.064Z,75.04
2022-11-19T04:32:21.525Z,75.04
2022-11-19T04:34:51.627Z,74.80
2022-11-19T04:37:21.396Z,74.18
2022-11-19T04:39:51.141Z,74.65
2022-11-19T04:42:20.844Z,74.02
2022-11-19T04:44:50.892Z,74.62
2022-11-19T04:47:20.754Z,74.89
2022-11-19T04:49:50.491Z,74.60
2022-11-19T04:52:20.511Z,74.26
2022-11-19T04:54:50.277Z,74.11
2022-11-19T04:57:20.023Z,74.45
2022-11-19T04:59:49.785Z,73.90
2022-11-19T05:02:19.544Z,74.01
2022-11-19T05:04:49.314Z,74.22
2022-11-19T05:07:19.187Z,73.84
2022-11-19T05:09:48.889Z,74.04
2022-11-19T05:12:18.656Z,73.76
2022-11-19T05:14:48.693Z,74.18
2022-11-19T05:17:18.751Z,73.84
2022-11-19T05:19:48.565Z,74.42
2022-11-19T05:22:18.143Z,74.12
2022-11-19T05:24:47.855Z,74.44
2022-11-19T05:27:17.600Z,74.27
2022-11-19T05:29:47.666Z,74.34
2022-11-19T05:32:17.167Z,74.52
2022-11-19T05:34:46.909Z,73.94
2022-11-19T05:37:16.644Z,74.13
2022-11-19T05:39:46.684Z,74.02
2022-11-19T05:42:16.141Z,73.86
2022-11-19T05:44:45.933Z,74.21
2022-11-19T05:47:17.892Z,73.40
2022-11-19T05:49:47.620Z,73.97
2022-11-19T05:52:17.360Z,73.77
2022-11-19T05:54:47.113Z,73.12
2022-11-19T05:57:16.918Z,73.10
2022-11-19T05:59:46.657Z,73.81
2022-11-19T06:02:16.117Z,73.81
2022-11-19T06:04:46.224Z,73.51
2022-11-19T06:07:16.099Z,73.59
2022-11-19T06:09:45.856Z,73.27
2022-11-19T06:12:15.299Z,73.31
2022-11-19T06:14:45.087Z,73.59
2022-11-19T06:17:14.814Z,73.60
2022-11-19T06:19:44.571Z,73.34
2022-11-19T06:22:14.009Z,73.25
2022-11-19T06:24:43.754Z,72.91
2022-11-19T06:27:13.251Z,73.08
2022-11-19T06:29:43.374Z,72.67
2022-11-19T06:32:13.190Z,73.50
2022-11-19T06:34:42.928Z,72.79
2022-11-19T06:37:12.712Z,72.33
2022-11-19T06:39:42.837Z,72.64
2022-11-19T06:42:29.863Z,72.41
2022-11-19T06:44:59.628Z,72.41
2022-11-19T06:47:31.856Z,72.40
2022-11-19T06:50:01.504Z,72.34
2022-11-19T06:52:31.255Z,72.31
2022-11-19T06:55:01.031Z,72.64
2022-11-19T06:57:30.771Z,72.35
2022-11-19T07:00:00.621Z,72.71
2022-11-19T07:02:30.432Z,72.71
2022-11-19T07:05:00.195Z,72.47
2022-11-19T07:07:30.437Z,72.98
2022-11-19T07:10:00.579Z,72.70
2022-11-19T07:12:30.432Z,71.85
2022-11-19T07:15:04.326Z,71.83
2022-11-19T07:17:31.690Z,71.98
2022-11-19T07:20:01.831Z,72.29
2022-11-19T07:22:31.569Z,72.43
2022-11-19T07:25:01.675Z,72.75
2022-11-19T07:27:31.408Z,72.17
2022-11-19T07:30:02.049Z,72.48
2022-11-19T07:32:31.787Z,72.48
2022-11-19T07:35:01.605Z,72.32
2022-11-19T07:37:31.713Z,72.94
2022-11-19T07:40:02.124Z,72.76
2022-11-19T07:42:49.777Z,72.29
2022-11-19T07:45:21.352Z,72.35
2022-11-19T07:47:51.186Z,72.48
2022-11-19T07:50:21.372Z,72.18
2022-11-19T07:52:51.104Z,71.89
2022-11-19T07:55:20.595Z,72.37
2022-11-19T07:57:50.662Z,72.53
2022-11-19T08:00:21.605Z,72.22
2022-11-19T08:02:51.166Z,72.20
2022-11-19T08:05:20.664Z,71.83
2022-11-19T08:07:50.449Z,71.83
2022-11-19T08:10:20.250Z,72.27
2022-11-19T08:12:51.768Z,72.15
2022-11-19T08:15:21.666Z,72.64
2022-11-19T08:18:09.714Z,72.39
2022-11-19T08:20:41.810Z,72.21
2022-11-19T08:23:12.977Z,71.04
2022-11-19T08:25:44.867Z,71.27
2022-11-19T08:28:14.765Z,70.66
2022-11-19T08:30:45.372Z,71.26
2022-11-19T08:33:15.201Z,70.94
2022-11-19T08:35:44.939Z,70.49
2022-11-19T08:38:14.380Z,70.41
2022-11-19T08:40:44.152Z,69.57
2022-11-19T08:43:13.919Z,69.46
2022-11-19T08:45:46.716Z,69.93
2022-11-19T08:48:16.265Z,70.06
2022-11-19T08:50:46.099Z,69.84
2022-11-19T08:53:15.949Z,69.71
2022-11-19T08:55:47.181Z,69.55
2022-11-19T08:58:16.996Z,68.67
2022-11-19T09:00:46.872Z,69.16
2022-11-19T09:03:16.862Z,69.81
2022-11-19T09:05:46.700Z,69.15
2022-11-19T09:08:16.331Z,69.44
2022-11-19T09:10:46.435Z,69.47
2022-11-19T09:13:16.239Z,69.70
2022-11-19T09:15:47.482Z,69.26
2022-11-19T09:18:17.165Z,68.92
2022-11-19T09:20:46.899Z,69.27
2022-11-19T09:23:16.663Z,68.65
2022-11-19T09:25:46.394Z,69.09
2022-11-19T09:28:16.142Z,68.62
2022-11-19T09:30:45.892Z,68.59
2022-11-19T09:33:15.718Z,68.55
2022-11-19T09:35:45.479Z,68.55
2022-11-19T09:38:15.063Z,67.46
2022-11-19T09:40:52.798Z,68.14
2022-11-19T09:43:41.809Z,67.64
2022-11-19T09:46:20.670Z,67.77
2022-11-19T09:48:53.862Z,68.03
2022-11-19T09:51:28.615Z,68.03
2022-11-19T09:54:10.040Z,68.12
2022-11-19T09:56:42.879Z,68.32
2022-11-19T09:59:25.005Z,67.38
2022-11-19T10:01:55.968Z,67.89
2022-11-19T10:04:31.390Z,67.80
2022-11-19T10:07:38.706Z,67.30
2022-11-19T10:10:27.515Z,66.93
2022-11-19T10:13:14.210Z,66.81
2022-11-19T10:15:47.028Z,67.27
2022-11-19T10:18:34.625Z,67.15
2022-11-19T10:21:31.312Z,67.45
2022-11-19T10:24:03.790Z,68.16
2022-11-19T10:26:36.055Z,67.75
2022-11-19T10:29:17.708Z,66.83
2022-11-19T10:31:50.425Z,66.33
2022-11-19T10:34:29.107Z,66.22
2022-11-19T10:37:04.519Z,66.37
2022-11-19T10:39:51.681Z,66.15
2022-11-19T10:42:29.764Z,66.60
2022-11-19T10:45:19.947Z,66.65
2022-11-19T10:47:56.296Z,66.16
2022-11-19T10:50:27.157Z,65.65
2022-11-19T10:53:02.966Z,65.04
2022-11-19T10:55:35.771Z,64.69
2022-11-19T10:58:17.217Z,64.81
2022-11-19T11:00:48.095Z,64.01
2022-11-19T11:03:29.666Z,64.12
2022-11-19T11:06:06.521Z,64.26
2022-11-19T11:08:36.829Z,64.19
2022-11-19T11:11:06.721Z,64.58
2022-11-19T11:14:00.675Z,63.86
2022-11-19T11:16:45.436Z,63.79
2022-11-19T11:19:23.349Z,63.31
2022-11-19T11:21:55.319Z,63.31
2022-11-19T11:24:33.694Z,62.83
2022-11-19T11:27:24.746Z,62.87
2022-11-19T11:30:16.363Z,61.98
2022-11-19T11:32:47.244Z,61.94
2022-11-19T11:35:38.498Z,62.62
2022-11-19T11:38:10.355Z,62.38
2022-11-19T11:40:40.132Z,62.42
2022-11-19T11:43:12.934Z,62.27
2022-11-19T11:45:42.682Z,62.30
2022-11-19T11:48:21.027Z,62.35
2022-11-19T11:50:50.824Z,63.08
2022-11-19T11:53:32.542Z,62.94
2022-11-19T11:56:04.018Z,63.34
2022-11-19T11:58:35.296Z,63.65
2022-11-19T12:01:21.230Z,62.21
2022-11-19T12:03:59.225Z,62.21
2022-11-19T12:06:38.071Z,61.44
2022-11-19T12:09:10.572Z,60.50
2022-11-19T12:11:54.763Z,59.19
2022-11-19T12:14:39.108Z,59.52
2022-11-19T12:17:23.633Z,59.58
2022-11-19T12:20:04.979Z,59.89
2022-11-19T12:22:54.109Z,59.51
2022-11-19T12:25:44.265Z,60.38
2022-11-19T12:28:22.607Z,60.88
2022-11-19T12:31:16.277Z,60.88
2022-11-19T12:34:01.656Z,61.36
2022-11-19T12:36:53.621Z,60.95
2022-11-19T12:39:48.887Z,61.11
2022-11-19T12:42:35.837Z,61.37
2022-11-19T12:45:41.932Z,61.58
2022-11-19T12:48:40.118Z,61.56
2022-11-19T12:51:15.756Z,61.56
2022-11-19T12:54:08.334Z,61.15
2022-11-19T12:56:43.953Z,60.50
2022-11-19T12:59:31.683Z,61.21
2022-11-19T13:02:04.806Z,60.46
2022-11-19T13:04:40.622Z,60.71
2022-11-19T13:07:16.105Z,60.47
2022-11-19T13:09:58.679Z,60.74
2022-11-19T13:12:36.623Z,60.00
2022-11-19T13:15:25.604Z,59.99
2022-11-19T13:17:58.548Z,60.08
2022-11-19T13:20:47.937Z,61.00
2022-11-19T13:23:29.698Z,59.82
2022-11-19T13:26:02.227Z,59.82
2022-11-19T13:28:46.756Z,59.55
2022-11-19T13:31:31.505Z,60.21
2022-11-19T13:34:04.276Z,59.55
2022-11-19T13:36:42.841Z,59.82
2022-11-19T13:39:18.869Z,59.43
2022-11-19T13:42:09.112Z,59.55
2022-11-19T13:44:40.970Z,58.99
2022-11-19T13:47:25.160Z,59.16
2022-11-19T13:50:09.676Z,58.60
2022-11-19T13:52:48.522Z,58.57
2022-11-19T13:55:32.072Z,59.04
2022-11-19T13:58:16.292Z,58.18
2022-11-19T14:01:08.057Z,58.82
2022-11-19T14:03:44.462Z,58.57
2022-11-19T14:06:40.738Z,58.61
2022-11-19T14:09:43.773Z,59.42
2022-11-19T14:12:22.372Z,59.11
2022-11-19T14:15:29.168Z,59.04
2022-11-19T14:18:19.263Z,59.04
2022-11-19T14:21:06.475Z,58.08
2022-11-19T14:24:08.196Z,59.65
2022-11-19T14:26:52.530Z,59.61
2022-11-19T14:29:30.197Z,59.22
2022-11-19T14:32:06.229Z,59.29
2022-11-19T14:34:38.500Z,59.44
2022-11-19T14:37:26.395Z,58.92
2022-11-19T14:40:10.993Z,58.73
2022-11-19T14:43:20.411Z,58.97
2022-11-19T14:46:09.277Z,59.75
2022-11-19T14:48:44.883Z,59.07
2022-11-19T14:51:20.494Z,58.66
2022-11-19T14:54:12.446Z,58.53
2022-11-19T14:56:44.465Z,58.69
2022-11-19T14:59:23.033Z,59.54
2022-11-19T15:02:01.177Z,59.27
2022-11-19T15:04:42.878Z,60.98
2022-11-19T15:07:15.049Z,60.40
2022-11-19T15:10:11.839Z,59.10
2022-11-19T15:12:47.532Z,59.35
2022-11-19T15:15:31.903Z,59.76
2022-11-19T15:18:04.758Z,59.42
2022-11-19T15:21:02.730Z,59.71
2022-11-19T15:23:47.461Z,60.58
2022-11-19T15:26:22.872Z,61.14
2022-11-19T15:29:16.872Z,60.37
2022-11-19T15:31:52.233Z,60.53
2022-11-19T15:34:49.016Z,60.68
2022-11-19T15:37:08.306Z,61.03
2022-11-19T15:39:44.199Z,61.03
2022-11-19T15:42:16.716Z,61.67
2022-11-19T15:45:01.293Z,62.02
2022-11-19T15:47:34.080Z,60.79
2022-11-19T15:50:05.424Z,62.89
2022-11-19T15:52:35.232Z,61.66
2022-11-19T15:55:13.792Z,61.80
2022-11-19T15:57:47.014Z,63.38
2022-11-19T16:00:19.541Z,62.99
2022-11-19T16:02:52.247Z,63.21
2022-11-19T16:05:24.633Z,63.21
2022-11-19T16:07:55.376Z,63.04
2022-11-19T16:10:33.169Z,63.03
2022-11-19T16:13:22.406Z,64.03
2022-11-19T16:15:56.612Z,63.80
2022-11-19T16:18:26.370Z,63.16
2022-11-19T16:20:56.182Z,62.98
2022-11-19T16:23:27.456Z,63.51
2022-11-19T16:25:58.718Z,62.74
2022-11-19T16:28:35.352Z,61.54
2022-11-19T16:31:06.218Z,61.94
2022-11-19T16:33:36.301Z,63.79
2022-11-19T16:36:19.698Z,64.93
2022-11-19T16:38:52.372Z,64.08
2022-11-19T16:41:42.310Z,64.94
2022-11-19T16:44:14.811Z,64.94
2022-11-19T16:46:44.726Z,63.87
2022-11-19T16:49:32.470Z,63.75
2022-11-19T16:52:03.078Z,64.68
2022-11-19T16:54:50.316Z,65.56
2022-11-19T16:57:23.404Z,65.65
2022-11-19T17:00:01.947Z,65.82
2022-11-19T17:02:34.581Z,65.25
2022-11-19T17:05:10.467Z,65.49
2022-11-19T17:07:42.358Z,65.57
2022-11-19T17:10:24.260Z,65.07
2022-11-19T17:13:00.049Z,65.47
2022-11-19T17:15:41.221Z,65.42
2022-11-19T17:18:29.150Z,65.42
2022-11-19T17:21:04.997Z,65.25
2022-11-19T17:23:37.834Z,64.65
2022-11-19T17:26:11.383Z,64.24
2022-11-19T17:28:45.311Z,66.17
2022-11-19T17:31:26.497Z,65.15
2022-11-19T17:33:59.198Z,65.55
2022-11-19T17:36:28.943Z,65.59
2022-11-19T17:38:58.757Z,66.13
2022-11-19T17:41:47.483Z,66.13
2022-11-19T17:44:39.502Z,66.26
2022-11-19T17:47:24.061Z,65.06
2022-11-19T17:49:54.369Z,64.90
2022-11-19T17:52:26.665Z,65.84
2022-11-19T17:55:01.809Z,65.64
2022-11-19T17:57:32.346Z,66.23
2022-11-19T18:00:02.149Z,66.12
2022-11-19T18:02:33.505Z,66.12
2022-11-19T18:05:03.720Z,64.99
2022-11-19T18:07:33.530Z,64.36
2022-11-19T18:10:03.314Z,65.27
2022-11-19T18:12:33.834Z,65.13
2022-11-19T18:15:03.696Z,65.85
2022-11-19T18:17:33.798Z,65.26
2022-11-19T18:20:03.624Z,64.98
2022-11-19T18:22:33.370Z,65.65
2022-11-19T18:25:03.197Z,67.13
2022-11-19T18:27:32.999Z,67.13
2022-11-19T18:30:02.812Z,66.38
2022-11-19T18:32:32.641Z,67.92
2022-11-19T18:35:02.248Z,67.75
2022-11-19T18:37:32.525Z,67.04
2022-11-19T18:40:02.307Z,66.56
2022-11-19T18:42:32.126Z,66.56
2022-11-19T18:45:01.905Z,66.40
2022-11-19T18:47:31.579Z,66.32
2022-11-19T18:50:01.579Z,65.69
2022-11-19T18:52:31.617Z,67.03
2022-11-19T18:55:01.841Z,66.28
2022-11-19T18:57:31.560Z,65.31
2022-11-19T19:00:01.361Z,66.21
2022-11-19T19:02:31.242Z,65.68
2022-11-19T19:05:00.977Z,65.42
2022-11-19T19:07:30.901Z,65.99
2022-11-19T19:10:00.970Z,66.65
2022-11-19T19:12:32.362Z,66.70
2022-11-19T19:15:02.110Z,66.58
2022-11-19T19:17:32.045Z,66.57
2022-11-19T19:20:01.896Z,66.89
2022-11-19T19:22:31.650Z,66.50
2022-11-19T19:25:01.688Z,67.10
2022-11-19T19:27:31.273Z,67.72
2022-11-19T19:30:01.034Z,66.78
2022-11-19T19:32:30.796Z,67.21
2022-11-19T19:35:00.748Z,67.00
2022-11-19T19:37:30.798Z,67.38
2022-11-19T19:40:00.562Z,66.83
2022-11-19T19:42:30.376Z,67.73
2022-11-19T19:45:00.128Z,67.64
2022-11-19T19:47:29.949Z,67.65
2022-11-19T19:49:59.441Z,66.41
2022-11-19T19:52:29.546Z,67.41
2022-11-19T19:54:59.582Z,67.08
2022-11-19T19:57:32.234Z,67.40
2022-11-19T20:00:01.983Z,67.94
2022-11-19T20:02:33.746Z,67.50
2022-11-19T20:05:03.922Z,67.24
2022-11-19T20:07:33.454Z,67.65
2022-11-19T20:10:03.322Z,67.28
2022-11-19T20:12:34.717Z,67.24
2022-11-19T20:15:04.881Z,67.90
2022-11-19T20:17:34.658Z,67.90
2022-11-19T20:20:07.155Z,67.22
2022-11-19T20:22:36.951Z,67.39
2022-11-19T20:25:08.550Z,67.39
2022-11-19T20:27:38.571Z,67.83
2022-11-19T20:30:10.446Z,67.44
2022-11-19T20:32:40.537Z,67.32
2022-11-19T20:35:10.064Z,68.24
2022-11-19T20:37:39.854Z,66.90
2022-11-19T20:40:11.874Z,68.34
2022-11-19T20:42:58.922Z,68.35
2022-11-19T20:45:28.647Z,68.76
2022-11-19T20:47:58.407Z,68.35
2022-11-19T20:50:27.851Z,68.36
2022-11-19T20:55:18.375Z,68.68
2022-11-19T20:57:48.124Z,68.05
2022-11-19T21:00:18.880Z,68.72
2022-11-19T21:02:48.687Z,68.00
2022-11-19T21:05:18.200Z,68.00
2022-11-19T21:07:48.479Z,68.59
2022-11-19T21:10:18.152Z,69.31
2022-11-19T21:12:49.541Z,68.72
2022-11-19T21:15:19.287Z,68.81
2022-11-19T21:17:49.021Z,69.30
2022-11-19T21:20:18.527Z,69.17
2022-11-19T21:22:48.348Z,69.20
2022-11-19T21:25:18.608Z,69.19
2022-11-19T21:27:48.663Z,69.27
2022-11-19T21:30:19.278Z,69.25
2022-11-19T21:32:49.105Z,69.27
2022-11-19T21:35:18.874Z,70.01
2022-11-19T21:37:48.654Z,69.15
2022-11-19T21:40:18.659Z,69.40
2022-11-19T21:42:48.702Z,69.47
2022-11-19T21:45:18.226Z,69.27
2022-11-19T21:47:48.136Z,68.50
2022-11-19T21:50:18.035Z,69.37
2022-11-19T21:52:50.496Z,69.53
2022-11-19T21:55:20.067Z,69.20
2022-11-19T21:57:49.876Z,69.02
2022-11-19T22:00:21.165Z,68.68
2022-11-19T22:02:52.628Z,69.27
2022-11-19T22:05:23.616Z,69.92
2022-11-19T22:07:54.992Z,69.92
2022-11-19T22:10:24.457Z,69.52
2022-11-19T22:12:54.220Z,69.73
2022-11-19T22:15:23.979Z,69.26
2022-11-19T22:17:53.735Z,69.49
2022-11-19T22:20:24.814Z,69.71
2022-11-19T22:22:56.204Z,69.48
2022-11-19T22:25:25.778Z,69.39
2022-11-19T22:27:55.215Z,69.63
2022-11-19T22:30:24.904Z,69.75
2022-11-19T22:32:54.919Z,69.50
2022-11-19T22:35:24.375Z,69.93
2022-11-19T22:37:54.129Z,69.80
2022-11-19T22:40:23.591Z,69.51
2022-11-19T22:42:53.397Z,69.62
2022-11-19T22:45:22.842Z,69.37
2022-11-19T22:47:52.598Z,69.45
2022-11-19T22:50:22.377Z,69.45
2022-11-19T22:52:52.168Z,69.84
2022-11-19T22:55:21.911Z,69.63
2022-11-19T22:57:51.681Z,69.12
2022-11-19T23:00:40.889Z,69.87
2022-11-19T23:03:11.511Z,69.65
2022-11-19T23:05:41.604Z,69.78
2022-11-19T23:08:12.202Z,69.92
2022-11-19T23:10:41.997Z,70.71
2022-11-19T23:13:34.370Z,70.91
2022-11-19T23:16:20.367Z,71.06
2022-11-19T23:18:52.437Z,71.10
2022-11-19T23:21:24.632Z,71.07
2022-11-19T23:23:54.932Z,71.13
2022-11-19T23:26:28.265Z,70.68
2022-11-19T23:28:58.455Z,71.02
2022-11-19T23:31:30.663Z,71.68
2022-11-19T23:34:01.024Z,71.68
2022-11-19T23:36:36.562Z,71.35
2022-11-19T23:39:09.216Z,71.35
2022-11-19T23:41:38.959Z,71.49
2022-11-19T23:44:11.017Z,71.30
2022-11-19T23:46:40.889Z,71.21
2022-11-19T23:49:12.488Z,70.52
2022-11-19T23:51:42.254Z,72.13
2022-11-19T23:54:14.104Z,71.45
2022-11-19T23:56:43.906Z,71.45
2022-11-19T23:59:13.683Z,71.44
